Time,TemperatureF,DewpointF,PressureIn,WindDirection,WindDirectionDegrees,WindSpeedMPH,WindSpeedGustMPH,Humidity,HourlyPrecipIn,Conditions,Clouds,dailyrainin,SoftwareType,DateUTC
2013-01-19 00:04:00,35.0,20.0,30.06,South,187,4.0,17.0,55,0.00,,,0.00,,2013-01-19 05:04:00,
2013-01-19 00:13:00,35.0,20.0,30.06,South,187,4.0,17.0,55,0.00,,,0.00,,2013-01-19 05:13:00,
2013-01-19 00:23:00,36.0,21.0,30.06,SW,229,11.0,17.0,55,0.00,,,0.00,,2013-01-19 05:23:00,
2013-01-19 00:33:00,36.0,21.0,30.06,SW,225,9.0,15.0,54,0.00,,,0.00,,2013-01-19 05:33:00,
2013-01-19 00:43:00,36.0,21.0,30.06,SW,225,9.0,15.0,54,0.00,,,0.00,,2013-01-19 05:43:00,
2013-01-19 00:52:00,36.0,21.0,30.05,SW,234,7.0,19.0,55,0.00,,,0.00,,2013-01-19 05:52:00,
2013-01-19 01:03:00,36.0,21.0,30.06,South,189,4.0,13.0,55,0.00,,,0.00,,2013-01-19 06:03:00,
2013-01-19 01:12:00,36.0,21.0,30.06,South,189,4.0,13.0,55,0.00,,,0.00,,2013-01-19 06:12:00,
2013-01-19 01:22:00,37.0,22.0,30.06,West,261,14.0,17.0,55,0.00,,,0.00,,2013-01-19 06:22:00,
2013-01-19 01:33:00,36.0,22.0,30.06,SW,236,7.0,17.0,56,0.00,,,0.00,,2013-01-19 06:33:00,
2013-01-19 01:43:00,36.0,22.0,30.06,SW,236,7.0,17.0,56,0.00,,,0.00,,2013-01-19 06:43:00,
2013-01-19 01:52:00,36.0,22.0,30.06,West,273,8.0,17.0,56,0.00,,,0.00,,2013-01-19 06:52:00,
2013-01-19 02:02:00,36.0,22.0,30.06,WSW,252,10.0,14.0,56,0.00,,,0.00,,2013-01-19 07:02:00,
2013-01-19 02:12:00,36.0,22.0,30.06,WSW,252,10.0,14.0,56,0.00,,,0.00,,2013-01-19 07:12:00,
2013-01-19 02:22:00,36.0,22.0,30.06,SW,225,3.0,14.0,56,0.00,,,0.00,,2013-01-19 07:22:00,
2013-01-19 02:33:00,36.0,22.0,30.06,SSE,168,9.0,14.0,56,0.00,,,0.00,,2013-01-19 07:33:00,
2013-01-19 02:43:00,36.0,22.0,30.06,SSE,168,9.0,14.0,56,0.00,,,0.00,,2013-01-19 07:43:00,
2013-01-19 02:52:00,36.0,22.0,30.06,SSE,164,2.0,14.0,56,0.00,,,0.00,,2013-01-19 07:52:00,
2013-01-19 03:02:00,36.0,22.0,30.06,South,173,3.0,13.0,56,0.00,,,0.00,,2013-01-19 08:02:00,
2013-01-19 03:12:00,36.0,22.0,30.06,South,173,3.0,13.0,56,0.00,,,0.00,,2013-01-19 08:12:00,
2013-01-19 03:22:00,36.0,22.0,30.06,SSW,209,7.0,13.0,56,0.00,,,0.00,,2013-01-19 08:22:00,
2013-01-19 03:32:00,36.0,22.0,30.06,WSW,254,4.0,9.0,57,0.00,,,0.00,,2013-01-19 08:32:00,
2013-01-19 03:43:00,36.0,22.0,30.06,WSW,254,4.0,9.0,57,0.00,,,0.00,,2013-01-19 08:43:00,
2013-01-19 03:52:00,36.0,22.0,30.06,WSW,254,4.0,9.0,57,0.00,,,0.00,,2013-01-19 08:52:00,
2013-01-19 04:02:00,36.0,22.0,30.05,West,269,3.0,10.0,57,0.00,,,0.00,,2013-01-19 09:02:00,
2013-01-19 04:12:00,36.0,22.0,30.05,West,269,3.0,10.0,57,0.00,,,0.00,,2013-01-19 09:12:00,
2013-01-19 04:23:00,36.0,22.0,30.05,SSE,160,2.0,10.0,56,0.00,,,0.00,,2013-01-19 09:23:00,
2013-01-19 04:33:00,37.0,22.0,30.04,SSW,206,6.0,8.0,55,0.00,,,0.00,,2013-01-19 09:33:00,
2013-01-19 04:42:00,37.0,22.0,30.04,SSW,206,6.0,8.0,55,0.00,,,0.00,,2013-01-19 09:42:00,
2013-01-19 04:52:00,39.0,23.0,30.03,SW,221,6.0,14.0,52,0.00,,,0.00,,2013-01-19 09:52:00,
2013-01-19 05:02:00,39.0,23.0,30.03,SW,221,6.0,14.0,52,0.00,,,0.00,,2013-01-19 10:02:00,
2013-01-19 05:12:00,39.0,23.0,30.03,SW,221,6.0,14.0,52,0.00,,,0.00,,2013-01-19 10:12:00,
2013-01-19 05:23:00,40.0,22.0,30.02,SW,223,9.0,14.0,49,0.00,,,0.00,,2013-01-19 10:23:00,
2013-01-19 05:33:00,40.0,22.0,30.02,SW,215,10.0,15.0,49,0.00,,,0.00,,2013-01-19 10:33:00,
2013-01-19 05:43:00,40.0,22.0,30.02,SW,215,10.0,15.0,49,0.00,,,0.00,,2013-01-19 10:43:00,
2013-01-19 05:52:00,40.0,22.0,30.02,SE,141,5.0,15.0,48,0.00,,,0.00,,2013-01-19 10:52:00,
2013-01-19 06:03:00,40.0,22.0,30.02,WSW,238,7.0,13.0,49,0.00,,,0.00,,2013-01-19 11:03:00,
2013-01-19 06:12:00,40.0,22.0,30.02,WSW,238,7.0,13.0,49,0.00,,,0.00,,2013-01-19 11:12:00,
2013-01-19 06:48:00,40.0,22.0,30.02,WNW,284,7.0,14.0,48,0.00,,,0.00,,2013-01-19 11:48:00,
2013-01-19 07:47:00,40.0,22.0,30.02,WNW,284,7.0,14.0,48,0.00,,,0.00,,2013-01-19 12:47:00,
2013-01-19 07:48:00,40.0,22.0,30.02,WSW,256,8.0,12.0,49,0.00,,,0.00,,2013-01-19 12:48:00,
2013-01-19 07:53:00,40.0,22.0,30.02,WSW,256,8.0,12.0,49,0.00,,,0.00,,2013-01-19 12:53:00,
2013-01-19 08:03:00,40.0,23.0,30.03,SW,221,4.0,10.0,50,0.00,,,0.00,,2013-01-19 13:03:00,
2013-01-19 08:13:00,40.0,23.0,30.03,SW,221,4.0,10.0,50,0.00,,,0.00,,2013-01-19 13:13:00,
2013-01-19 08:23:00,40.0,23.0,30.03,SW,232,4.0,17.0,51,0.00,,,0.00,,2013-01-19 13:23:00,
2013-01-19 08:34:00,40.0,23.0,30.03,WSW,256,12.0,14.0,51,0.00,,,0.00,,2013-01-19 13:34:00,
2013-01-19 08:43:00,40.0,23.0,30.03,WSW,256,12.0,14.0,51,0.00,,,0.00,,2013-01-19 13:43:00,
2013-01-19 08:53:00,40.0,23.0,30.03,WSW,256,12.0,14.0,51,0.00,,,0.00,,2013-01-19 13:53:00,
2013-01-19 09:03:00,41.0,24.0,30.03,WSW,238,7.0,12.0,51,0.00,,,0.00,,2013-01-19 14:03:00,
2013-01-19 09:12:00,41.0,24.0,30.03,WSW,238,7.0,12.0,51,0.00,,,0.00,,2013-01-19 14:12:00,
2013-01-19 09:23:00,41.0,24.0,30.03,WSW,238,7.0,12.0,51,0.00,,,0.00,,2013-01-19 14:23:00,
2013-01-19 09:34:00,41.0,24.0,30.03,WSW,238,7.0,12.0,51,0.00,,,0.00,,2013-01-19 14:34:00,
2013-01-19 09:43:00,41.0,24.0,30.03,WSW,238,7.0,12.0,51,0.00,,,0.00,,2013-01-19 14:43:00,
2013-01-19 09:54:00,42.0,25.0,30.03,South,190,3.0,17.0,50,0.00,,,0.00,,2013-01-19 14:54:00,
2013-01-19 10:03:00,43.0,26.0,30.03,SSW,206,8.0,16.0,50,0.00,,,0.00,,2013-01-19 15:03:00,
2013-01-19 10:13:00,43.0,26.0,30.03,SSW,206,8.0,16.0,50,0.00,,,0.00,,2013-01-19 15:13:00,
2013-01-19 10:23:00,43.0,26.0,30.03,SSW,206,8.0,16.0,50,0.00,,,0.00,,2013-01-19 15:23:00,
2013-01-19 10:33:00,44.0,26.0,30.03,West,261,14.0,20.0,48,0.00,,,0.00,,2013-01-19 15:33:00,
2013-01-19 10:43:00,44.0,26.0,30.03,West,261,14.0,20.0,48,0.00,,,0.00,,2013-01-19 15:43:00,
2013-01-19 10:53:00,44.0,26.0,30.03,West,261,14.0,20.0,48,0.00,,,0.00,,2013-01-19 15:53:00,
2013-01-19 11:03:00,46.0,27.0,30.02,SW,216,8.0,15.0,47,0.00,,,0.00,,2013-01-19 16:03:00,
2013-01-19 11:13:00,46.0,27.0,30.02,SW,216,8.0,15.0,47,0.00,,,0.00,,2013-01-19 16:13:00,
2013-01-19 11:23:00,46.0,27.0,30.02,SW,216,8.0,15.0,47,0.00,,,0.00,,2013-01-19 16:23:00,
2013-01-19 11:33:00,46.0,26.0,30.01,SW,222,7.0,16.0,46,0.00,,,0.00,,2013-01-19 16:33:00,
2013-01-19 11:43:00,46.0,26.0,30.01,SW,222,7.0,16.0,46,0.00,,,0.00,,2013-01-19 16:43:00,
2013-01-19 11:54:00,46.0,26.0,30.01,SW,222,7.0,16.0,46,0.00,,,0.00,,2013-01-19 16:54:00,
2013-01-19 12:03:00,47.0,27.0,29.99,WSW,242,9.0,15.0,46,0.00,,,0.00,,2013-01-19 17:03:00,
2013-01-19 12:21:00,47.0,27.0,29.99,WSW,242,9.0,15.0,46,0.00,,,0.00,,2013-01-19 17:21:00,
2013-01-19 12:29:00,47.0,27.0,29.99,WSW,242,9.0,15.0,46,0.00,,,0.00,,2013-01-19 17:29:00,
2013-01-19 12:36:00,48.0,28.0,29.97,West,265,7.0,17.0,46,0.00,,,0.00,,2013-01-19 17:36:00,
2013-01-19 12:50:00,48.0,28.0,29.97,West,265,7.0,17.0,46,0.00,,,0.00,,2013-01-19 17:50:00,
2013-01-19 12:55:00,49.0,29.0,29.96,South,187,7.0,17.0,46,0.00,,,0.00,,2013-01-19 17:55:00,
2013-01-19 13:12:00,49.0,29.0,29.94,SSE,150,3.0,14.0,45,0.00,,,0.00,,2013-01-19 18:12:00,
2013-01-19 13:28:00,49.0,29.0,29.93,WSW,252,14.0,16.0,46,0.00,,,0.00,,2013-01-19 18:28:00,
2013-01-19 13:37:00,49.0,29.0,29.91,West,262,5.0,17.0,46,0.00,,,0.00,,2013-01-19 18:37:00,
2013-01-19 13:46:00,49.0,29.0,29.91,West,262,5.0,17.0,46,0.00,,,0.00,,2013-01-19 18:46:00,
2013-01-19 13:55:00,49.0,29.0,29.91,West,262,5.0,17.0,46,0.00,,,0.00,,2013-01-19 18:55:00,
2013-01-19 14:10:00,50.0,29.0,29.88,WSW,253,10.0,19.0,45,0.00,,,0.00,,2013-01-19 19:10:00,
2013-01-19 14:20:00,50.0,29.0,29.88,WSW,253,10.0,19.0,45,0.00,,,0.00,,2013-01-19 19:20:00,
2013-01-19 14:31:00,50.0,29.0,29.88,WSW,253,10.0,19.0,45,0.00,,,0.00,,2013-01-19 19:31:00,
2013-01-19 14:40:00,51.0,30.0,29.87,West,261,11.0,18.0,44,0.00,,,0.00,,2013-01-19 19:40:00,
2013-01-19 14:47:00,51.0,30.0,29.87,West,261,11.0,18.0,44,0.00,,,0.00,,2013-01-19 19:47:00,
2013-01-19 14:59:00,51.0,30.0,29.87,SE,132,15.0,18.0,44,0.00,,,0.00,,2013-01-19 19:59:00,
2013-01-19 15:11:00,51.0,30.0,29.87,SE,132,15.0,18.0,44,0.00,,,0.00,,2013-01-19 20:11:00,
2013-01-19 15:19:00,51.0,30.0,29.87,SE,132,15.0,18.0,44,0.00,,,0.00,,2013-01-19 20:19:00,
2013-01-19 15:26:00,51.0,29.0,29.85,SSE,153,5.0,23.0,43,0.00,,,0.00,,2013-01-19 20:26:00,
2013-01-19 15:39:00,51.0,30.0,29.83,West,267,8.0,21.0,44,0.00,,,0.00,,2013-01-19 20:39:00,
2013-01-19 15:49:00,51.0,30.0,29.83,West,267,8.0,21.0,44,0.00,,,0.00,,2013-01-19 20:49:00,
2013-01-19 15:54:00,51.0,30.0,29.83,SW,225,6.0,21.0,44,0.00,,,0.00,,2013-01-19 20:54:00,
2013-01-19 16:08:00,51.0,30.0,29.82,SW,232,3.0,16.0,44,0.00,,,0.00,,2013-01-19 21:08:00,
2013-01-19 16:14:00,51.0,30.0,29.82,SW,232,3.0,16.0,44,0.00,,,0.00,,2013-01-19 21:14:00,
2013-01-19 16:27:00,51.0,30.0,29.82,South,187,4.0,17.0,44,0.00,,,0.00,,2013-01-19 21:27:00,
2013-01-19 16:46:00,51.0,30.0,29.82,South,187,4.0,17.0,44,0.00,,,0.00,,2013-01-19 21:46:00,
2013-01-19 16:57:00,52.0,30.0,29.79,SW,225,9.0,18.0,43,0.00,,,0.00,,2013-01-19 21:57:00,
2013-01-19 17:16:00,51.0,29.0,29.78,SSE,148,5.0,11.0,43,0.00,,,0.00,,2013-01-19 22:16:00,
2013-01-19 17:28:00,51.0,29.0,29.78,SSE,148,5.0,11.0,43,0.00,,,0.00,,2013-01-19 22:28:00,
2013-01-19 17:35:00,50.0,28.0,29.77,SW,232,10.0,13.0,43,0.00,,,0.00,,2013-01-19 22:35:00,
2013-01-19 17:49:00,50.0,28.0,29.77,SW,232,10.0,13.0,43,0.00,,,0.00,,2013-01-19 22:49:00,
2013-01-19 17:59:00,50.0,28.0,29.77,SSE,149,10.0,13.0,43,0.00,,,0.00,,2013-01-19 22:59:00,
2013-01-19 18:14:00,50.0,28.0,29.77,SSE,149,10.0,13.0,43,0.00,,,0.00,,2013-01-19 23:14:00,
2013-01-19 18:26:00,49.0,27.0,29.78,SW,234,4.0,15.0,43,0.00,,,0.00,,2013-01-19 23:26:00,
2013-01-19 18:35:00,49.0,28.0,29.77,WSW,246,4.0,13.0,44,0.00,,,0.00,,2013-01-19 23:35:00,
2013-01-19 19:00:00,49.0,28.0,29.77,WSW,246,4.0,13.0,44,0.00,,,0.00,,2013-01-20 00:00:00,
2013-01-19 19:09:00,48.0,27.0,29.78,SW,225,7.0,15.0,44,0.00,,,0.00,,2013-01-20 00:09:00,
2013-01-19 19:15:00,48.0,27.0,29.78,SW,225,7.0,15.0,44,0.00,,,0.00,,2013-01-20 00:15:00,
2013-01-19 19:36:00,49.0,27.0,29.78,South,180,4.0,12.0,43,0.00,,,0.00,,2013-01-20 00:36:00,
2013-01-19 19:46:00,49.0,27.0,29.78,South,180,4.0,12.0,43,0.00,,,0.00,,2013-01-20 00:46:00,
2013-01-19 19:54:00,49.0,27.0,29.77,WSW,237,10.0,16.0,43,0.00,,,0.00,,2013-01-20 00:54:00,
2013-01-19 20:04:00,49.0,27.0,29.76,WSW,240,9.0,13.0,43,0.00,,,0.00,,2013-01-20 01:04:00,
2013-01-19 20:22:00,49.0,27.0,29.76,WSW,240,9.0,13.0,43,0.00,,,0.00,,2013-01-20 01:22:00,
2013-01-19 20:27:00,49.0,27.0,29.76,SW,215,7.0,14.0,43,0.00,,,0.00,,2013-01-20 01:27:00,
2013-01-19 20:38:00,49.0,27.0,29.75,SW,215,3.0,16.0,43,0.00,,,0.00,,2013-01-20 01:38:00,
2013-01-19 20:48:00,49.0,27.0,29.75,SW,215,3.0,16.0,43,0.00,,,0.00,,2013-01-20 01:48:00,
2013-01-19 20:58:00,49.0,27.0,29.75,SW,215,3.0,16.0,43,0.00,,,0.00,,2013-01-20 01:58:00,
2013-01-19 21:09:00,48.0,27.0,29.73,SW,225,3.0,12.0,44,0.00,,,0.00,,2013-01-20 02:09:00,
2013-01-19 21:15:00,48.0,27.0,29.73,SW,225,3.0,12.0,44,0.00,,,0.00,,2013-01-20 02:15:00,
2013-01-19 21:27:00,48.0,28.0,29.73,SW,224,7.0,16.0,45,0.00,,,0.00,,2013-01-20 02:27:00,
2013-01-19 21:37:00,48.0,28.0,29.73,WSW,246,5.0,17.0,45,0.00,,,0.00,,2013-01-20 02:37:00,
2013-01-19 21:45:00,48.0,28.0,29.73,WSW,246,5.0,17.0,45,0.00,,,0.00,,2013-01-20 02:45:00,
2013-01-19 21:56:00,48.0,28.0,29.73,WSW,242,8.0,17.0,45,0.00,,,0.00,,2013-01-20 02:56:00,
2013-01-19 22:09:00,48.0,28.0,29.72,WSW,245,13.0,14.0,45,0.00,,,0.00,,2013-01-20 03:09:00,
2013-01-19 22:15:00,48.0,28.0,29.72,WSW,245,13.0,14.0,45,0.00,,,0.00,,2013-01-20 03:15:00,
2013-01-19 22:25:00,48.0,28.0,29.71,WSW,246,10.0,19.0,46,0.00,,,0.00,,2013-01-20 03:25:00,
2013-01-19 22:39:00,48.0,28.0,29.70,WSW,237,10.0,18.0,46,0.00,,,0.00,,2013-01-20 03:39:00,
2013-01-19 22:45:00,48.0,28.0,29.70,WSW,237,10.0,18.0,46,0.00,,,0.00,,2013-01-20 03:45:00,
2013-01-19 22:54:00,48.0,28.0,29.70,SSW,196,12.0,18.0,46,0.00,,,0.00,,2013-01-20 03:54:00,
2013-01-19 23:05:00,48.0,29.0,29.68,SW,229,6.0,20.0,47,0.00,,,0.00,,2013-01-20 04:05:00,
2013-01-19 23:15:00,48.0,29.0,29.68,SW,229,6.0,20.0,47,0.00,,,0.00,,2013-01-20 04:15:00,
2013-01-19 23:27:00,48.0,29.0,29.68,SW,229,6.0,20.0,47,0.00,,,0.00,,2013-01-20 04:27:00,
2013-01-19 23:37:00,48.0,30.0,29.67,SSW,210,16.0,19.0,49,0.00,,,0.00,,2013-01-20 04:37:00,
2013-01-19 23:44:00,48.0,30.0,29.67,SSW,210,16.0,19.0,49,0.00,,,0.00,,2013-01-20 04:44:00,
2013-01-19 23:59:00,48.0,30.0,29.67,SW,234,10.0,21.0,49,0.00,,,0.00,,2013-01-20 04:59:00,